sensor_id;sensor_type;location;lat;lon;timestamp;temperature;humidity
19254;DHT22;9761;50.926;5.330;2022-12-20T00:01:08;12.20;99.90
19254;DHT22;9761;50.926;5.330;2022-12-20T00:03:37;12.20;99.90
19254;DHT22;9761;50.926;5.330;2022-12-20T00:06:05;12.20;99.90
19254;DHT22;9761;50.926;5.330;2022-12-20T00:08:32;12.20;99.90
19254;DHT22;9761;50.926;5.330;2022-12-20T00:11:02;12.20;99.90
19254;DHT22;9761;50.926;5.330;2022-12-20T00:13:31;12.10;99.90
19254;DHT22;9761;50.926;5.330;2022-12-20T00:16:07;12.20;99.90
19254;DHT22;9761;50.926;5.330;2022-12-20T00:18:35;12.10;99.90
19254;DHT22;9761;50.926;5.330;2022-12-20T00:21:04;12.10;99.90
19254;DHT22;9761;50.926;5.330;2022-12-20T00:23:31;12.20;99.90
19254;DHT22;9761;50.926;5.330;2022-12-20T00:26:02;12.20;99.90
19254;DHT22;9761;50.926;5.330;2022-12-20T00:28:32;12.20;99.90
19254;DHT22;9761;50.926;5.330;2022-12-20T00:30:59;12.20;99.90
19254;DHT22;9761;50.926;5.330;2022-12-20T00:33:27;12.20;99.90
19254;DHT22;9761;50.926;5.330;2022-12-20T00:35:54;12.20;99.90
19254;DHT22;9761;50.926;5.330;2022-12-20T00:38:21;12.20;99.90
19254;DHT22;9761;50.926;5.330;2022-12-20T00:40:58;12.10;99.90
19254;DHT22;9761;50.926;5.330;2022-12-20T00:43:26;12.10;99.90
19254;DHT22;9761;50.926;5.330;2022-12-20T00:45:54;12.10;99.90
19254;DHT22;9761;50.926;5.330;2022-12-20T00:48:21;12.10;99.90
19254;DHT22;9761;50.926;5.330;2022-12-20T00:50:50;12.10;99.90
19254;DHT22;9761;50.926;5.330;2022-12-20T00:53:17;12.00;99.90
19254;DHT22;9761;50.926;5.330;2022-12-20T00:55:45;12.00;99.90
19254;DHT22;9761;50.926;5.330;2022-12-20T00:58:13;11.90;99.90
19254;DHT22;9761;50.926;5.330;2022-12-20T01:00:40;11.90;99.90
19254;DHT22;9761;50.926;5.330;2022-12-20T01:03:08;11.90;99.90
19254;DHT22;9761;50.926;5.330;2022-12-20T01:05:35;11.90;99.90
19254;DHT22;9761;50.926;5.330;2022-12-20T01:08:03;11.90;99.90
19254;DHT22;9761;50.926;5.330;2022-12-20T01:10:30;11.90;99.90
19254;DHT22;9761;50.926;5.330;2022-12-20T01:12:58;11.90;99.90
19254;DHT22;9761;50.926;5.330;2022-12-20T01:15:25;11.80;99.90
19254;DHT22;9761;50.926;5.330;2022-12-20T01:17:52;11.90;99.90
19254;DHT22;9761;50.926;5.330;2022-12-20T01:20:21;11.90;99.90
19254;DHT22;9761;50.926;5.330;2022-12-20T01:22:48;11.90;99.90
19254;DHT22;9761;50.926;5.330;2022-12-20T01:25:15;11.80;99.90
19254;DHT22;9761;50.926;5.330;2022-12-20T01:27:42;11.80;99.90
19254;DHT22;9761;50.926;5.330;2022-12-20T01:30:10;11.70;99.90
19254;DHT22;9761;50.926;5.330;2022-12-20T01:32:38;11.70;99.90
19254;DHT22;9761;50.926;5.330;2022-12-20T01:35:05;11.70;99.90
19254;DHT22;9761;50.926;5.330;2022-12-20T01:37:34;11.60;99.90
19254;DHT22;9761;50.926;5.330;2022-12-20T01:40:01;11.60;99.90
19254;DHT22;9761;50.926;5.330;2022-12-20T01:42:28;11.60;99.90
19254;DHT22;9761;50.926;5.330;2022-12-20T01:44:58;11.60;99.90
19254;DHT22;9761;50.926;5.330;2022-12-20T01:47:28;11.50;99.90
19254;DHT22;9761;50.926;5.330;2022-12-20T01:49:57;11.50;99.90
19254;DHT22;9761;50.926;5.330;2022-12-20T01:52:30;11.60;99.90
19254;DHT22;9761;50.926;5.330;2022-12-20T01:55:04;11.60;99.90
19254;DHT22;9761;50.926;5.330;2022-12-20T01:57:36;11.70;99.90
19254;DHT22;9761;50.926;5.330;2022-12-20T02:00:05;11.60;99.90
19254;DHT22;9761;50.926;5.330;2022-12-20T02:02:34;11.60;99.90
19254;DHT22;9761;50.926;5.330;2022-12-20T02:05:02;11.60;99.90
19254;DHT22;9761;50.926;5.330;2022-12-20T02:07:30;11.60;99.90
19254;DHT22;9761;50.926;5.330;2022-12-20T02:10:02;11.70;99.90
19254;DHT22;9761;50.926;5.330;2022-12-20T02:12:33;11.70;99.90
19254;DHT22;9761;50.926;5.330;2022-12-20T02:15:29;11.70;99.90
19254;DHT22;9761;50.926;5.330;2022-12-20T02:18:07;11.70;99.90
19254;DHT22;9761;50.926;5.330;2022-12-20T02:21:00;11.70;99.90
19254;DHT22;9761;50.926;5.330;2022-12-20T02:27:12;11.70;99.90
19254;DHT22;9761;50.926;5.330;2022-12-20T02:32:57;11.60;99.90
19254;DHT22;9761;50.926;5.330;2022-12-20T02:35:30;11.60;99.90
19254;DHT22;9761;50.926;5.330;2022-12-20T02:37:59;11.50;99.90
19254;DHT22;9761;50.926;5.330;2022-12-20T02:40:31;11.50;99.90
19254;DHT22;9761;50.926;5.330;2022-12-20T02:43:02;11.50;99.90
19254;DHT22;9761;50.926;5.330;2022-12-20T02:45:50;11.40;99.90
19254;DHT22;9761;50.926;5.330;2022-12-20T02:48:19;11.40;99.90
19254;DHT22;9761;50.926;5.330;2022-12-20T02:50:49;11.40;99.90
19254;DHT22;9761;50.926;5.330;2022-12-20T02:53:17;11.30;99.90
19254;DHT22;9761;50.926;5.330;2022-12-20T02:55:52;11.30;99.90
19254;DHT22;9761;50.926;5.330;2022-12-20T02:58:25;11.20;99.90
19254;DHT22;9761;50.926;5.330;2022-12-20T03:00:56;11.20;99.90
19254;DHT22;9761;50.926;5.330;2022-12-20T03:03:30;11.20;99.90
19254;DHT22;9761;50.926;5.330;2022-12-20T03:05:57;11.20;99.90
19254;DHT22;9761;50.926;5.330;2022-12-20T03:08:24;11.20;99.90
19254;DHT22;9761;50.926;5.330;2022-12-20T03:10:53;11.30;99.90
19254;DHT22;9761;50.926;5.330;2022-12-20T03:13:21;11.20;99.90
19254;DHT22;9761;50.926;5.330;2022-12-20T03:15:49;11.30;99.90
19254;DHT22;9761;50.926;5.330;2022-12-20T03:18:16;11.40;99.90
19254;DHT22;9761;50.926;5.330;2022-12-20T03:20:44;11.40;99.90
19254;DHT22;9761;50.926;5.330;2022-12-20T03:23:11;11.40;99.90
19254;DHT22;9761;50.926;5.330;2022-12-20T03:25:38;11.40;99.90
19254;DHT22;9761;50.926;5.330;2022-12-20T03:28:05;11.40;99.90
19254;DHT22;9761;50.926;5.330;2022-12-20T03:30:32;11.40;99.90
19254;DHT22;9761;50.926;5.330;2022-12-20T03:32:59;11.30;99.90
19254;DHT22;9761;50.926;5.330;2022-12-20T03:35:26;11.40;99.90
19254;DHT22;9761;50.926;5.330;2022-12-20T03:37:55;11.30;99.90
19254;DHT22;9761;50.926;5.330;2022-12-20T03:40:22;11.40;99.90
19254;DHT22;9761;50.926;5.330;2022-12-20T03:42:49;11.40;99.90
19254;DHT22;9761;50.926;5.330;2022-12-20T03:45:17;11.30;99.90
19254;DHT22;9761;50.926;5.330;2022-12-20T03:47:44;11.40;99.90
19254;DHT22;9761;50.926;5.330;2022-12-20T03:50:11;11.40;99.90
19254;DHT22;9761;50.926;5.330;2022-12-20T03:52:38;11.30;99.90
19254;DHT22;9761;50.926;5.330;2022-12-20T03:55:08;11.30;99.90
19254;DHT22;9761;50.926;5.330;2022-12-20T03:57:37;11.20;99.90
19254;DHT22;9761;50.926;5.330;2022-12-20T04:00:05;11.20;99.90
19254;DHT22;9761;50.926;5.330;2022-12-20T04:02:32;11.20;99.90
19254;DHT22;9761;50.926;5.330;2022-12-20T04:04:59;11.20;99.90
19254;DHT22;9761;50.926;5.330;2022-12-20T04:07:26;11.20;99.90
19254;DHT22;9761;50.926;5.330;2022-12-20T04:09:53;11.20;99.90
19254;DHT22;9761;50.926;5.330;2022-12-20T04:12:22;11.20;99.90
19254;DHT22;9761;50.926;5.330;2022-12-20T04:14:48;11.20;99.90
19254;DHT22;9761;50.926;5.330;2022-12-20T04:17:15;11.20;99.90
19254;DHT22;9761;50.926;5.330;2022-12-20T04:19:42;11.20;99.90
19254;DHT22;9761;50.926;5.330;2022-12-20T04:22:09;11.20;99.90
19254;DHT22;9761;50.926;5.330;2022-12-20T04:24:43;11.20;99.90
19254;DHT22;9761;50.926;5.330;2022-12-20T04:27:10;11.30;99.90
19254;DHT22;9761;50.926;5.330;2022-12-20T04:29:38;11.30;99.90
19254;DHT22;9761;50.926;5.330;2022-12-20T04:32:05;11.30;99.90
19254;DHT22;9761;50.926;5.330;2022-12-20T04:34:32;11.30;99.90
19254;DHT22;9761;50.926;5.330;2022-12-20T04:36:59;11.30;99.90
19254;DHT22;9761;50.926;5.330;2022-12-20T04:39:26;11.40;99.90
19254;DHT22;9761;50.926;5.330;2022-12-20T04:41:53;11.40;99.90
19254;DHT22;9761;50.926;5.330;2022-12-20T04:44:20;11.50;99.90
19254;DHT22;9761;50.926;5.330;2022-12-20T04:46:48;11.40;99.90
19254;DHT22;9761;50.926;5.330;2022-12-20T04:49:15;11.50;99.90
19254;DHT22;9761;50.926;5.330;2022-12-20T04:51:42;11.50;99.90
19254;DHT22;9761;50.926;5.330;2022-12-20T04:54:09;11.50;99.90
19254;DHT22;9761;50.926;5.330;2022-12-20T04:56:35;11.50;99.90
19254;DHT22;9761;50.926;5.330;2022-12-20T04:59:03;11.50;99.90
19254;DHT22;9761;50.926;5.330;2022-12-20T05:01:30;11.60;99.90
19254;DHT22;9761;50.926;5.330;2022-12-20T05:03:58;11.60;99.90
19254;DHT22;9761;50.926;5.330;2022-12-20T05:06:25;11.60;99.90
19254;DHT22;9761;50.926;5.330;2022-12-20T05:08:52;11.70;99.90
19254;DHT22;9761;50.926;5.330;2022-12-20T05:11:20;11.70;99.90
19254;DHT22;9761;50.926;5.330;2022-12-20T05:13:47;11.70;99.90
19254;DHT22;9761;50.926;5.330;2022-12-20T05:16:14;11.60;99.90
19254;DHT22;9761;50.926;5.330;2022-12-20T05:18:41;11.70;99.90
19254;DHT22;9761;50.926;5.330;2022-12-20T05:21:09;11.70;99.90
19254;DHT22;9761;50.926;5.330;2022-12-20T05:23:53;11.70;99.90
19254;DHT22;9761;50.926;5.330;2022-12-20T05:26:38;11.70;99.90
19254;DHT22;9761;50.926;5.330;2022-12-20T05:29:05;11.70;99.90
19254;DHT22;9761;50.926;5.330;2022-12-20T05:31:32;11.70;99.90
19254;DHT22;9761;50.926;5.330;2022-12-20T05:33:59;11.70;99.90
19254;DHT22;9761;50.926;5.330;2022-12-20T05:36:28;11.80;99.90
19254;DHT22;9761;50.926;5.330;2022-12-20T05:38:55;11.70;99.90
19254;DHT22;9761;50.926;5.330;2022-12-20T05:41:24;11.80;99.90
19254;DHT22;9761;50.926;5.330;2022-12-20T05:43:51;11.70;99.90
19254;DHT22;9761;50.926;5.330;2022-12-20T05:46:18;11.70;99.90
19254;DHT22;9761;50.926;5.330;2022-12-20T05:48:45;11.70;99.90
19254;DHT22;9761;50.926;5.330;2022-12-20T05:51:12;11.70;99.90
19254;DHT22;9761;50.926;5.330;2022-12-20T05:53:41;11.80;99.90
19254;DHT22;9761;50.926;5.330;2022-12-20T05:56:08;11.70;99.90
19254;DHT22;9761;50.926;5.330;2022-12-20T05:58:35;11.80;99.90
19254;DHT22;9761;50.926;5.330;2022-12-20T06:01:04;11.80;99.90
19254;DHT22;9761;50.926;5.330;2022-12-20T06:03:38;11.80;99.90
19254;DHT22;9761;50.926;5.330;2022-12-20T06:06:06;11.80;99.90
19254;DHT22;9761;50.926;5.330;2022-12-20T06:08:33;11.80;99.90
19254;DHT22;9761;50.926;5.330;2022-12-20T06:11:02;11.80;99.90
19254;DHT22;9761;50.926;5.330;2022-12-20T06:13:29;11.90;99.90
19254;DHT22;9761;50.926;5.330;2022-12-20T06:15:59;11.80;99.90
19254;DHT22;9761;50.926;5.330;2022-12-20T06:18:26;11.80;99.90
19254;DHT22;9761;50.926;5.330;2022-12-20T06:20:54;11.80;99.90
19254;DHT22;9761;50.926;5.330;2022-12-20T06:23:21;11.80;99.90
19254;DHT22;9761;50.926;5.330;2022-12-20T06:25:48;11.90;99.90
19254;DHT22;9761;50.926;5.330;2022-12-20T06:28:24;11.90;99.90
19254;DHT22;9761;50.926;5.330;2022-12-20T06:30:52;11.80;99.90
19254;DHT22;9761;50.926;5.330;2022-12-20T06:33:19;11.90;99.90
19254;DHT22;9761;50.926;5.330;2022-12-20T06:35:48;11.80;99.90
19254;DHT22;9761;50.926;5.330;2022-12-20T06:38:25;11.80;99.90
19254;DHT22;9761;50.926;5.330;2022-12-20T06:40:52;11.80;99.90
19254;DHT22;9761;50.926;5.330;2022-12-20T06:43:20;11.80;99.90
19254;DHT22;9761;50.926;5.330;2022-12-20T06:45:47;11.80;99.90
19254;DHT22;9761;50.926;5.330;2022-12-20T06:48:14;11.80;99.90
19254;DHT22;9761;50.926;5.330;2022-12-20T06:50:41;11.80;99.90
19254;DHT22;9761;50.926;5.330;2022-12-20T06:53:08;11.70;99.90
19254;DHT22;9761;50.926;5.330;2022-12-20T06:55:38;11.70;99.90
19254;DHT22;9761;50.926;5.330;2022-12-20T06:58:06;11.70;99.90
19254;DHT22;9761;50.926;5.330;2022-12-20T07:00:34;11.70;99.90
19254;DHT22;9761;50.926;5.330;2022-12-20T07:03:02;11.80;99.90
19254;DHT22;9761;50.926;5.330;2022-12-20T07:05:31;11.80;99.90
19254;DHT22;9761;50.926;5.330;2022-12-20T07:07:58;11.90;99.90
19254;DHT22;9761;50.926;5.330;2022-12-20T07:10:27;11.90;99.90
19254;DHT22;9761;50.926;5.330;2022-12-20T07:12:57;11.90;99.90
19254;DHT22;9761;50.926;5.330;2022-12-20T07:15:24;12.00;99.90
19254;DHT22;9761;50.926;5.330;2022-12-20T07:17:53;12.00;99.90
19254;DHT22;9761;50.926;5.330;2022-12-20T07:20:20;12.00;99.90
19254;DHT22;9761;50.926;5.330;2022-12-20T07:22:47;12.00;99.90
19254;DHT22;9761;50.926;5.330;2022-12-20T07:25:19;12.00;99.90
19254;DHT22;9761;50.926;5.330;2022-12-20T07:27:47;12.10;99.90
19254;DHT22;9761;50.926;5.330;2022-12-20T07:30:14;12.10;99.90
19254;DHT22;9761;50.926;5.330;2022-12-20T07:32:56;12.10;99.90
19254;DHT22;9761;50.926;5.330;2022-12-20T07:35:23;12.20;99.90
19254;DHT22;9761;50.926;5.330;2022-12-20T07:37:51;12.20;99.90
19254;DHT22;9761;50.926;5.330;2022-12-20T07:40:21;12.20;99.90
19254;DHT22;9761;50.926;5.330;2022-12-20T07:42:49;12.20;99.90
19254;DHT22;9761;50.926;5.330;2022-12-20T07:45:20;12.20;99.90
19254;DHT22;9761;50.926;5.330;2022-12-20T07:47:59;12.10;99.90
19254;DHT22;9761;50.926;5.330;2022-12-20T07:50:27;12.10;99.90
19254;DHT22;9761;50.926;5.330;2022-12-20T07:52:55;12.00;99.90
19254;DHT22;9761;50.926;5.330;2022-12-20T07:55:23;12.10;99.90
19254;DHT22;9761;50.926;5.330;2022-12-20T07:58:06;12.10;99.90
19254;DHT22;9761;50.926;5.330;2022-12-20T08:00:35;12.20;99.90
19254;DHT22;9761;50.926;5.330;2022-12-20T08:03:07;12.20;99.90
19254;DHT22;9761;50.926;5.330;2022-12-20T08:05:40;12.20;99.90
19254;DHT22;9761;50.926;5.330;2022-12-20T08:08:08;12.20;99.90
19254;DHT22;9761;50.926;5.330;2022-12-20T08:10:36;12.20;99.90
19254;DHT22;9761;50.926;5.330;2022-12-20T08:13:05;12.20;99.90
19254;DHT22;9761;50.926;5.330;2022-12-20T08:15:32;12.20;99.90
19254;DHT22;9761;50.926;5.330;2022-12-20T08:21:18;12.10;99.90
19254;DHT22;9761;50.926;5.330;2022-12-20T08:26:26;12.10;99.90
19254;DHT22;9761;50.926;5.330;2022-12-20T08:28:53;12.00;99.90
19254;DHT22;9761;50.926;5.330;2022-12-20T08:31:22;11.90;99.90
19254;DHT22;9761;50.926;5.330;2022-12-20T08:33:53;11.80;99.90
19254;DHT22;9761;50.926;5.330;2022-12-20T08:36:22;11.70;99.90
19254;DHT22;9761;50.926;5.330;2022-12-20T08:38:49;11.70;99.90
19254;DHT22;9761;50.926;5.330;2022-12-20T08:41:16;11.70;99.90
19254;DHT22;9761;50.926;5.330;2022-12-20T08:43:43;11.70;99.90
19254;DHT22;9761;50.926;5.330;2022-12-20T08:46:11;11.70;99.90
19254;DHT22;9761;50.926;5.330;2022-12-20T08:48:38;11.70;99.90
19254;DHT22;9761;50.926;5.330;2022-12-20T08:51:16;11.70;99.90
19254;DHT22;9761;50.926;5.330;2022-12-20T08:53:44;11.70;99.90
19254;DHT22;9761;50.926;5.330;2022-12-20T08:56:13;11.70;99.90
19254;DHT22;9761;50.926;5.330;2022-12-20T08:58:41;11.70;99.90
19254;DHT22;9761;50.926;5.330;2022-12-20T09:01:11;11.80;99.90
19254;DHT22;9761;50.926;5.330;2022-12-20T09:03:39;11.80;99.90
19254;DHT22;9761;50.926;5.330;2022-12-20T09:06:08;11.80;99.90
19254;DHT22;9761;50.926;5.330;2022-12-20T09:08:37;11.70;99.90
19254;DHT22;9761;50.926;5.330;2022-12-20T09:11:10;11.80;99.90
19254;DHT22;9761;50.926;5.330;2022-12-20T09:13:38;11.80;99.90
19254;DHT22;9761;50.926;5.330;2022-12-20T09:16:07;11.80;99.90
19254;DHT22;9761;50.926;5.330;2022-12-20T09:18:35;11.90;99.90
19254;DHT22;9761;50.926;5.330;2022-12-20T09:21:06;12.00;99.90
19254;DHT22;9761;50.926;5.330;2022-12-20T09:23:35;11.90;99.90
19254;DHT22;9761;50.926;5.330;2022-12-20T09:26:09;11.90;99.90
19254;DHT22;9761;50.926;5.330;2022-12-20T09:28:39;12.00;99.90
19254;DHT22;9761;50.926;5.330;2022-12-20T09:31:08;11.90;99.90
19254;DHT22;9761;50.926;5.330;2022-12-20T09:33:37;12.00;99.90
19254;DHT22;9761;50.926;5.330;2022-12-20T09:36:09;12.10;99.90
19254;DHT22;9761;50.926;5.330;2022-12-20T09:38:37;12.10;99.90
19254;DHT22;9761;50.926;5.330;2022-12-20T09:41:14;12.10;99.90
19254;DHT22;9761;50.926;5.330;2022-12-20T09:43:44;12.20;99.90
19254;DHT22;9761;50.926;5.330;2022-12-20T09:46:19;12.20;99.90
19254;DHT22;9761;50.926;5.330;2022-12-20T09:49:02;12.20;99.90
19254;DHT22;9761;50.926;5.330;2022-12-20T09:52:06;12.20;99.90
19254;DHT22;9761;50.926;5.330;2022-12-20T09:54:43;12.30;99.90
19254;DHT22;9761;50.926;5.330;2022-12-20T09:57:24;12.20;99.90
19254;DHT22;9761;50.926;5.330;2022-12-20T09:59:56;12.20;99.90
19254;DHT22;9761;50.926;5.330;2022-12-20T10:02:25;12.10;99.90
19254;DHT22;9761;50.926;5.330;2022-12-20T10:04:55;12.10;99.90
19254;DHT22;9761;50.926;5.330;2022-12-20T10:07:32;12.10;99.90
19254;DHT22;9761;50.926;5.330;2022-12-20T10:10:24;12.10;99.90
19254;DHT22;9761;50.926;5.330;2022-12-20T10:13:09;12.10;99.90
19254;DHT22;9761;50.926;5.330;2022-12-20T10:15:46;12.10;99.90
19254;DHT22;9761;50.926;5.330;2022-12-20T10:18:51;12.10;99.90
19254;DHT22;9761;50.926;5.330;2022-12-20T10:21:42;12.20;99.90
19254;DHT22;9761;50.926;5.330;2022-12-20T10:24:32;12.20;99.90
19254;DHT22;9761;50.926;5.330;2022-12-20T10:27:08;12.30;99.90
19254;DHT22;9761;50.926;5.330;2022-12-20T10:29:55;12.30;99.90
19254;DHT22;9761;50.926;5.330;2022-12-20T10:32:41;12.40;99.90
19254;DHT22;9761;50.926;5.330;2022-12-20T10:35:25;12.40;99.90
19254;DHT22;9761;50.926;5.330;2022-12-20T10:37:58;12.40;99.90
19254;DHT22;9761;50.926;5.330;2022-12-20T10:40:28;12.40;99.90
19254;DHT22;9761;50.926;5.330;2022-12-20T10:42:56;12.40;99.90
19254;DHT22;9761;50.926;5.330;2022-12-20T10:45:39;12.40;99.90
19254;DHT22;9761;50.926;5.330;2022-12-20T10:48:27;12.50;99.90
19254;DHT22;9761;50.926;5.330;2022-12-20T10:50:56;12.40;99.90
19254;DHT22;9761;50.926;5.330;2022-12-20T10:53:24;12.40;99.90
19254;DHT22;9761;50.926;5.330;2022-12-20T10:56:16;12.40;99.90
19254;DHT22;9761;50.926;5.330;2022-12-20T10:58:55;12.40;99.90
19254;DHT22;9761;50.926;5.330;2022-12-20T11:01:27;12.40;99.90
19254;DHT22;9761;50.926;5.330;2022-12-20T11:04:25;12.30;99.90
19254;DHT22;9761;50.926;5.330;2022-12-20T11:07:00;12.10;99.90
19254;DHT22;9761;50.926;5.330;2022-12-20T11:09:34;11.80;99.90
19254;DHT22;9761;50.926;5.330;2022-12-20T11:12:16;11.70;99.90
19254;DHT22;9761;50.926;5.330;2022-12-20T11:24:04;11.90;99.90
19254;DHT22;9761;50.926;5.330;2022-12-20T11:26:57;11.90;99.90
19254;DHT22;9761;50.926;5.330;2022-12-20T11:29:45;11.80;99.90
19254;DHT22;9761;50.926;5.330;2022-12-20T11:35:51;11.70;99.90
19254;DHT22;9761;50.926;5.330;2022-12-20T11:38:39;11.60;99.90
19254;DHT22;9761;50.926;5.330;2022-12-20T11:46:52;11.50;99.90
19254;DHT22;9761;50.926;5.330;2022-12-20T11:49:41;11.40;99.90
19254;DHT22;9761;50.926;5.330;2022-12-20T11:52:19;11.30;99.90
19254;DHT22;9761;50.926;5.330;2022-12-20T11:54:57;11.20;99.90
19254;DHT22;9761;50.926;5.330;2022-12-20T11:57:33;11.20;99.90
19254;DHT22;9761;50.926;5.330;2022-12-20T12:00:04;11.30;99.90
19254;DHT22;9761;50.926;5.330;2022-12-20T12:02:38;11.30;99.90
19254;DHT22;9761;50.926;5.330;2022-12-20T12:05:19;11.20;99.90
19254;DHT22;9761;50.926;5.330;2022-12-20T12:07:51;11.20;99.90
19254;DHT22;9761;50.926;5.330;2022-12-20T12:10:23;11.20;99.90
19254;DHT22;9761;50.926;5.330;2022-12-20T12:12:57;11.20;99.90
19254;DHT22;9761;50.926;5.330;2022-12-20T12:15:35;11.20;99.90
19254;DHT22;9761;50.926;5.330;2022-12-20T12:18:08;11.20;99.90
19254;DHT22;9761;50.926;5.330;2022-12-20T12:20:47;11.20;99.90
19254;DHT22;9761;50.926;5.330;2022-12-20T12:23:18;11.20;99.90
19254;DHT22;9761;50.926;5.330;2022-12-20T12:25:47;11.20;99.90
19254;DHT22;9761;50.926;5.330;2022-12-20T12:28:17;11.20;99.90
19254;DHT22;9761;50.926;5.330;2022-12-20T12:30:50;11.20;99.90
19254;DHT22;9761;50.926;5.330;2022-12-20T12:33:22;11.10;99.90
19254;DHT22;9761;50.926;5.330;2022-12-20T12:36:04;11.10;99.90
19254;DHT22;9761;50.926;5.330;2022-12-20T12:44:38;11.30;99.90
19254;DHT22;9761;50.926;5.330;2022-12-20T12:47:13;11.20;99.90
19254;DHT22;9761;50.926;5.330;2022-12-20T12:49:47;11.10;99.90
19254;DHT22;9761;50.926;5.330;2022-12-20T12:52:40;11.20;99.90
19254;DHT22;9761;50.926;5.330;2022-12-20T12:55:36;11.10;99.90
19254;DHT22;9761;50.926;5.330;2022-12-20T13:00:56;11.00;99.90
19254;DHT22;9761;50.926;5.330;2022-12-20T13:04:09;11.00;99.90
19254;DHT22;9761;50.926;5.330;2022-12-20T13:09:48;10.90;99.90
19254;DHT22;9761;50.926;5.330;2022-12-20T13:19:32;11.00;99.90
19254;DHT22;9761;50.926;5.330;2022-12-20T13:22:17;11.00;99.90
19254;DHT22;9761;50.926;5.330;2022-12-20T13:24:55;11.00;99.90
19254;DHT22;9761;50.926;5.330;2022-12-20T13:27:34;10.90;99.90
19254;DHT22;9761;50.926;5.330;2022-12-20T13:33:22;10.80;99.90
19254;DHT22;9761;50.926;5.330;2022-12-20T13:35:58;10.80;99.90
19254;DHT22;9761;50.926;5.330;2022-12-20T13:41:47;10.80;99.90
19254;DHT22;9761;50.926;5.330;2022-12-20T13:44:39;10.80;99.90
19254;DHT22;9761;50.926;5.330;2022-12-20T13:50:31;10.80;99.90
19254;DHT22;9761;50.926;5.330;2022-12-20T13:53:00;10.90;99.90
19254;DHT22;9761;50.926;5.330;2022-12-20T13:55:35;10.80;99.90
19254;DHT22;9761;50.926;5.330;2022-12-20T13:58:15;10.80;99.90
19254;DHT22;9761;50.926;5.330;2022-12-20T14:00:47;10.90;99.90
19254;DHT22;9761;50.926;5.330;2022-12-20T14:03:21;10.90;99.90
19254;DHT22;9761;50.926;5.330;2022-12-20T14:05:56;10.90;99.90
19254;DHT22;9761;50.926;5.330;2022-12-20T14:08:42;11.00;99.90
19254;DHT22;9761;50.926;5.330;2022-12-20T14:11:26;11.00;99.90
19254;DHT22;9761;50.926;5.330;2022-12-20T14:14:20;10.90;99.90
19254;DHT22;9761;50.926;5.330;2022-12-20T14:16:50;11.00;99.90
19254;DHT22;9761;50.926;5.330;2022-12-20T14:19:20;10.90;99.90
19254;DHT22;9761;50.926;5.330;2022-12-20T14:22:19;11.00;99.90
19254;DHT22;9761;50.926;5.330;2022-12-20T14:25:00;11.00;99.90
19254;DHT22;9761;50.926;5.330;2022-12-20T14:27:34;11.00;99.90
19254;DHT22;9761;50.926;5.330;2022-12-20T14:30:40;11.00;99.90
19254;DHT22;9761;50.926;5.330;2022-12-20T14:33:20;11.00;99.90
19254;DHT22;9761;50.926;5.330;2022-12-20T14:35:56;11.00;99.90
19254;DHT22;9761;50.926;5.330;2022-12-20T14:38:28;10.90;99.90
19254;DHT22;9761;50.926;5.330;2022-12-20T14:40:57;11.00;99.90
19254;DHT22;9761;50.926;5.330;2022-12-20T14:43:27;11.00;99.90
19254;DHT22;9761;50.926;5.330;2022-12-20T14:52:44;10.90;99.90
19254;DHT22;9761;50.926;5.330;2022-12-20T14:55:15;11.00;99.90
19254;DHT22;9761;50.926;5.330;2022-12-20T14:57:48;11.00;99.90
19254;DHT22;9761;50.926;5.330;2022-12-20T15:00:22;11.00;99.90
19254;DHT22;9761;50.926;5.330;2022-12-20T15:02:55;11.10;99.90
19254;DHT22;9761;50.926;5.330;2022-12-20T15:05:42;11.00;99.90
19254;DHT22;9761;50.926;5.330;2022-12-20T15:08:15;11.00;99.90
19254;DHT22;9761;50.926;5.330;2022-12-20T15:11:01;11.00;99.90
19254;DHT22;9761;50.926;5.330;2022-12-20T15:13:46;11.10;99.90
19254;DHT22;9761;50.926;5.330;2022-12-20T15:16:28;11.10;99.90
19254;DHT22;9761;50.926;5.330;2022-12-20T15:18:56;11.10;99.90
19254;DHT22;9761;50.926;5.330;2022-12-20T15:21:50;11.10;99.90
19254;DHT22;9761;50.926;5.330;2022-12-20T15:24:40;11.00;99.90
19254;DHT22;9761;50.926;5.330;2022-12-20T15:27:15;11.00;99.90
19254;DHT22;9761;50.926;5.330;2022-12-20T15:29:42;11.00;99.90
19254;DHT22;9761;50.926;5.330;2022-12-20T15:32:35;11.10;99.90
19254;DHT22;9761;50.926;5.330;2022-12-20T15:35:02;11.00;99.90
19254;DHT22;9761;50.926;5.330;2022-12-20T15:37:59;11.00;99.90
19254;DHT22;9761;50.926;5.330;2022-12-20T15:40:51;11.00;99.90
19254;DHT22;9761;50.926;5.330;2022-12-20T15:43:20;11.00;99.90
19254;DHT22;9761;50.926;5.330;2022-12-20T15:45:50;11.00;99.90
19254;DHT22;9761;50.926;5.330;2022-12-20T15:48:20;11.00;99.90
19254;DHT22;9761;50.926;5.330;2022-12-20T15:50:51;11.00;99.90
19254;DHT22;9761;50.926;5.330;2022-12-20T15:53:33;10.90;99.90
19254;DHT22;9761;50.926;5.330;2022-12-20T15:56:16;10.90;99.90
19254;DHT22;9761;50.926;5.330;2022-12-20T15:58:51;10.80;99.90
19254;DHT22;9761;50.926;5.330;2022-12-20T16:01:21;10.80;99.90
19254;DHT22;9761;50.926;5.330;2022-12-20T16:03:55;10.80;99.90
19254;DHT22;9761;50.926;5.330;2022-12-20T16:06:43;10.70;99.90
19254;DHT22;9761;50.926;5.330;2022-12-20T16:09:12;10.70;99.90
19254;DHT22;9761;50.926;5.330;2022-12-20T16:11:41;10.70;99.90
19254;DHT22;9761;50.926;5.330;2022-12-20T16:14:13;10.70;99.90
19254;DHT22;9761;50.926;5.330;2022-12-20T16:16:44;10.70;99.90
19254;DHT22;9761;50.926;5.330;2022-12-20T16:19:12;10.70;99.90
19254;DHT22;9761;50.926;5.330;2022-12-20T16:21:46;10.70;99.90
19254;DHT22;9761;50.926;5.330;2022-12-20T16:24:16;10.70;99.90
19254;DHT22;9761;50.926;5.330;2022-12-20T16:26:50;10.80;99.90
19254;DHT22;9761;50.926;5.330;2022-12-20T16:29:19;10.80;99.90
19254;DHT22;9761;50.926;5.330;2022-12-20T16:31:47;10.70;99.90
19254;DHT22;9761;50.926;5.330;2022-12-20T16:34:25;10.70;99.90
19254;DHT22;9761;50.926;5.330;2022-12-20T16:36:52;10.70;99.90
19254;DHT22;9761;50.926;5.330;2022-12-20T16:39:19;10.70;99.90
19254;DHT22;9761;50.926;5.330;2022-12-20T16:41:48;10.70;99.90
19254;DHT22;9761;50.926;5.330;2022-12-20T16:44:16;10.70;99.90
19254;DHT22;9761;50.926;5.330;2022-12-20T16:46:44;10.70;99.90
19254;DHT22;9761;50.926;5.330;2022-12-20T16:49:11;10.70;99.90
19254;DHT22;9761;50.926;5.330;2022-12-20T16:51:41;10.70;99.90
19254;DHT22;9761;50.926;5.330;2022-12-20T16:54:13;10.70;99.90
19254;DHT22;9761;50.926;5.330;2022-12-20T16:56:42;10.70;99.90
19254;DHT22;9761;50.926;5.330;2022-12-20T16:59:13;10.70;99.90
19254;DHT22;9761;50.926;5.330;2022-12-20T17:01:41;10.70;99.90
19254;DHT22;9761;50.926;5.330;2022-12-20T17:04:13;10.70;99.90
19254;DHT22;9761;50.926;5.330;2022-12-20T17:06:41;10.70;99.90
19254;DHT22;9761;50.926;5.330;2022-12-20T17:09:08;10.70;99.90
19254;DHT22;9761;50.926;5.330;2022-12-20T17:11:35;10.70;99.90
19254;DHT22;9761;50.926;5.330;2022-12-20T17:14:02;10.70;99.90
19254;DHT22;9761;50.926;5.330;2022-12-20T17:16:31;10.70;99.90
19254;DHT22;9761;50.926;5.330;2022-12-20T17:18:58;10.70;99.90
19254;DHT22;9761;50.926;5.330;2022-12-20T17:21:31;10.70;99.90
19254;DHT22;9761;50.926;5.330;2022-12-20T17:24:00;10.80;99.90